INFORMACIÓN METAR y TAF
METAR FOR LECO
ADDS - METARS form results

(1840 UTC 26 February 2020)
Data provider http://aviationweather.gov/metar/data/
 
METAR text: LECO 261830Z 21007KT 9999 BKN040 11/09 Q1023 NOSIG
Conditions at: LECO (LA CORUNA/ALVEDR, ES) observed 1830 UTC 26 February 2020
Temperature: 11.0°C (52°F)
Dewpoint: 9.0°C (48°F) [RH = 87%]
Pressure (altimeter): 30.21 inches Hg (1023.0 mb)
Winds: from the SSW (210 degrees) at 8 MPH (7 knots; 3.6 m/s)
Visibility: 6 or more miles (10+ km)
Ceiling: 4000 feet AGL
Clouds: broken clouds at 4000 feet AGL
Weather: no significant weather observed at this time

METAR text: LECO 261800Z 24006KT 150V290 9999 BKN030 BKN040 12/08 Q1023 NOSIG
Conditions at: LECO (LA CORUNA/ALVEDR, ES) observed 1800 UTC 26 February 2020
Temperature: 12.0°C (54°F)
Dewpoint: 8.0°C (46°F) [RH = 76%]
Pressure (altimeter): 30.21 inches Hg (1023.0 mb)
Winds: from the WSW (240 degrees) at 7 MPH (6 knots; 3.1 m/s)
Visibility: 6 or more miles (10+ km)
Ceiling: 3000 feet AGL
Clouds: broken clouds at 3000 feet AGL
broken clouds at 4000 feet AGL
Weather: no significant weather observed at this time

Forecast for: LECO (LA CORUNA/ALVEDR, ES)
Text: TAF LECO 261400Z 2615/2715 27009KT 9999 SCT035 BKN045 TX17/2712Z TN10/2703Z
Forecast period: 1500 UTC 26 February 2020 to 1500 UTC 27 February 2020
Forecast type: FROM: standard forecast or significant change
Winds: from the W (270 degrees) at 10 MPH (9 knots; 4.6 m/s)
Visibility: 6 or more miles 10+ km)
Ceiling: 4500 feet AGL
Clouds: scattered clouds at 3500 feet AGL
broken clouds at 4500 feet AGL
Weather: no significant weather forecast for this period
Text: PROB40
Forecast period: 2100 UTC 26 February 2020 to 1500 UTC 27 February 2020
Forecast type: TEMPORARY: The following changes expected for less than half the time period
Winds: from the WSW (240 degrees) at 17 MPH (15 knots; 7.7 m/s)
gusting to 29 MPH (25 knots; 12.9 m/s)
Visibility: missing
Ceiling: unknown
Clouds: missing
Weather: no significant weather forecast for this period

 MAPA DE AEROPUERTO

 INFORMACIÓN DE PISTA
Pista 03 Longitud 6358 ft Ancho 148 ft
Elevación 327 ft Umbral desplazado 0 ft Rumbo de pista 31
Pista 21 Longitud 6358 ft Ancho 148 ft
Elevación 286 ft Umbral desplazado 0 ft Rumbo de pista 211

 FRECUANCIAS DEL AEROPUERTO
Tipo APP Nombre SANTIAGO A Frecuencia 120.2 MHZ
Tipo GND Nombre GND Frecuencia 121.7 MHZ
Tipo TWR Nombre A Coruña T Frecuencia 118.3 MHZ

 RADIO AYUDAS DEL AEROPUERTO
Tipo NDB Nombre La Coruna Frecuencia 401 KHZ
Tipo VOR-DME Nombre La Coruna Frecuencia 115100 KHZ